Terminal Aerodrome Forecast
Issued by NWS

Home | Current Version | Previous Version | Text Only | Print | Product List | Glossary On
Versions: 1 2 3 4 5 6 7 8 9 10 11 12 13 14 15 16 17 18 19 20 21 22 23 24 25 26 27 28 29 30 31 32 33 34 35 36 37 38 39 40 41 42 43 44 45 46
000
FTUS45 KGJT 261126
TAFMTJ
TAF
KMTJ 261126Z 2612/2712 14005KT P6SM SCT100
     FM261600 35006KT P6SM BKN100
     FM262000 19008KT P6SM VCTS SCT060 BKN100CB
      TEMPO 2622/2702 VRB15G25KT -TSRA BKN060CB
     FM270300 14008KT P6SM VCSH BKN100
     FM270900 14006KT P6SM SCT100=

USA.gov is the U.S. government's official web portal to all federal, state and local government web resources and services.